createdAt,value
2022-12-24T00:00:38.372Z,25.67
2022-12-24T00:03:08.224Z,27.23
2022-12-24T00:05:40.359Z,26.53
2022-12-24T00:08:13.719Z,28.57
2022-12-24T00:10:43.513Z,27.57
2022-12-24T00:13:14.239Z,25.40
2022-12-24T00:15:43.931Z,27.97
2022-12-24T00:18:14.683Z,26.00
2022-12-24T00:20:49.618Z,26.60
2022-12-24T00:23:22.313Z,27.70
2022-12-24T00:25:52.072Z,25.67
2022-12-24T00:28:21.878Z,26.93
2022-12-24T00:30:51.630Z,25.60
2022-12-24T00:33:24.700Z,27.80
2022-12-24T00:35:55.678Z,25.43
2022-12-24T00:38:28.125Z,26.40
2022-12-24T00:41:01.940Z,28.13
2022-12-24T00:43:32.525Z,25.57
2022-12-24T00:46:03.195Z,27.80
2022-12-24T00:48:32.907Z,29.13
2022-12-24T00:51:02.658Z,28.00
2022-12-24T00:53:36.975Z,27.20
2022-12-24T00:56:06.956Z,27.13
2022-12-24T00:58:38.152Z,27.30
2022-12-24T01:01:08.415Z,26.77
2022-12-24T01:03:39.192Z,26.93
2022-12-24T01:06:09.196Z,27.40
2022-12-24T01:08:42.815Z,26.07
2022-12-24T01:11:15.483Z,24.97
2022-12-24T01:13:45.331Z,24.80
2022-12-24T01:16:18.570Z,21.87
2022-12-24T01:18:48.754Z,20.60
2022-12-24T01:21:22.348Z,19.00
2022-12-24T01:23:55.871Z,18.20
2022-12-24T01:26:26.586Z,16.27
2022-12-24T01:28:57.556Z,12.73
2022-12-24T01:31:28.464Z,11.40
2022-12-24T01:33:59.240Z,9.00
2022-12-24T01:36:29.105Z,8.23
2022-12-24T01:39:01.458Z,7.60
2022-12-24T01:41:46.303Z,6.53
2022-12-24T01:44:31.585Z,5.80
2022-12-24T01:47:10.985Z,5.87
2022-12-24T01:49:44.187Z,5.50
2022-12-24T01:52:18.124Z,5.70
2022-12-24T01:54:55.795Z,5.77
2022-12-24T01:57:30.094Z,6.47
2022-12-24T02:00:05.150Z,5.90
2022-12-24T02:02:35.999Z,6.20
2022-12-24T02:05:10.982Z,7.07
2022-12-24T02:07:41.042Z,6.13
2022-12-24T02:10:15.668Z,6.90
2022-12-24T02:12:46.711Z,7.33
2022-12-24T02:15:19.752Z,6.47
2022-12-24T02:17:58.581Z,6.33
2022-12-24T02:20:50.768Z,7.40
2022-12-24T02:23:41.476Z,6.00
2022-12-24T02:26:29.849Z,6.23
2022-12-24T02:29:29.069Z,6.17
2022-12-24T02:32:06.085Z,6.90
2022-12-24T02:34:41.594Z,5.43
2022-12-24T02:37:17.943Z,5.47
2022-12-24T02:39:54.809Z,6.83
2022-12-24T02:42:28.965Z,6.80
2022-12-24T02:45:02.484Z,6.10
2022-12-24T02:47:36.255Z,5.60
2022-12-24T02:50:10.469Z,5.80
2022-12-24T02:52:42.704Z,6.23
2022-12-24T02:55:18.823Z,5.87
2022-12-24T02:58:03.301Z,6.13
2022-12-24T03:00:42.464Z,5.50
2022-12-24T03:03:36.581Z,6.27
2022-12-24T03:06:16.211Z,6.40
2022-12-24T03:08:52.146Z,6.00
2022-12-24T03:11:21.766Z,6.07
2022-12-24T03:13:53.231Z,5.93
2022-12-24T03:16:27.697Z,6.67
2022-12-24T03:19:02.728Z,5.80
2022-12-24T03:21:37.175Z,6.80
2022-12-24T03:24:07.304Z,6.67
2022-12-24T03:26:37.653Z,6.53
2022-12-24T03:29:09.398Z,7.50
2022-12-24T03:31:46.985Z,5.97
2022-12-24T03:34:20.547Z,5.10
2022-12-24T03:36:51.138Z,5.80
2022-12-24T03:39:21.222Z,6.93
2022-12-24T03:41:51.557Z,5.07
2022-12-24T03:44:21.273Z,6.23
2022-12-24T03:46:50.959Z,5.10
2022-12-24T03:49:23.217Z,7.10
2022-12-24T03:51:53.009Z,5.90
2022-12-24T03:54:22.669Z,5.60
2022-12-24T03:56:52.353Z,6.37
2022-12-24T03:59:22.355Z,6.80
2022-12-24T04:01:52.367Z,5.57
2022-12-24T04:04:24.758Z,6.53
2022-12-24T04:06:54.493Z,7.20
2022-12-24T04:09:24.142Z,5.63
2022-12-24T04:11:53.827Z,5.10
2022-12-24T04:14:23.574Z,5.40
2022-12-24T04:16:53.298Z,5.80
2022-12-24T04:19:25.590Z,5.60
2022-12-24T04:21:55.304Z,5.93
2022-12-24T04:24:25.138Z,5.90
2022-12-24T04:26:54.966Z,5.43
2022-12-24T04:29:24.770Z,6.00
2022-12-24T04:31:54.523Z,5.43
2022-12-24T04:34:26.833Z,4.90
2022-12-24T04:36:56.506Z,4.70
2022-12-24T04:39:26.163Z,5.43
2022-12-24T04:41:55.827Z,5.23
2022-12-24T04:44:25.603Z,5.00
2022-12-24T04:46:55.317Z,5.07
2022-12-24T04:49:27.715Z,4.83
2022-12-24T04:51:57.361Z,5.30
2022-12-24T04:54:27.031Z,4.90
2022-12-24T04:56:56.923Z,5.10
2022-12-24T04:59:26.642Z,4.93
2022-12-24T05:01:56.477Z,5.80
2022-12-24T05:04:28.797Z,4.90
2022-12-24T05:06:58.503Z,5.03
2022-12-24T05:09:28.167Z,5.80
2022-12-24T05:11:57.840Z,5.23
2022-12-24T05:14:27.521Z,5.77
2022-12-24T05:16:57.347Z,5.70
2022-12-24T05:19:29.810Z,6.70
2022-12-24T05:22:11.749Z,5.57
2022-12-24T05:24:53.874Z,5.90
2022-12-24T05:27:23.820Z,6.13
2022-12-24T05:29:53.461Z,6.80
2022-12-24T05:32:23.137Z,5.33
2022-12-24T05:34:55.389Z,6.60
2022-12-24T05:37:25.068Z,6.57
2022-12-24T05:39:54.746Z,6.20
2022-12-24T05:42:24.388Z,6.17
2022-12-24T05:44:54.050Z,6.33
2022-12-24T05:47:23.657Z,6.67
2022-12-24T05:49:55.926Z,7.50
2022-12-24T05:52:25.586Z,6.27
2022-12-24T05:54:55.267Z,6.73
2022-12-24T05:57:24.883Z,6.50
2022-12-24T05:59:54.726Z,7.43
2022-12-24T06:02:24.577Z,7.10
2022-12-24T06:04:56.876Z,6.67
2022-12-24T06:07:26.591Z,6.63
2022-12-24T06:09:56.233Z,6.50
2022-12-24T06:12:25.905Z,6.83
2022-12-24T06:14:55.524Z,6.90
2022-12-24T06:17:25.387Z,7.10
2022-12-24T06:19:57.602Z,6.70
2022-12-24T06:22:27.297Z,7.33
2022-12-24T06:24:56.938Z,7.03
2022-12-24T06:27:26.584Z,7.33
2022-12-24T06:29:56.297Z,6.33
2022-12-24T06:32:25.953Z,6.23
2022-12-24T06:34:58.190Z,5.63
2022-12-24T06:37:27.896Z,6.87
2022-12-24T06:39:57.610Z,6.77
2022-12-24T06:42:27.339Z,6.13
2022-12-24T06:44:58.834Z,7.00
2022-12-24T06:47:32.936Z,5.87
2022-12-24T06:50:05.220Z,7.33
2022-12-24T06:52:34.953Z,6.30
2022-12-24T06:55:04.679Z,7.07
2022-12-24T06:57:34.543Z,7.07
2022-12-24T07:00:04.335Z,6.27
2022-12-24T07:02:34.272Z,6.90
2022-12-24T07:05:07.008Z,8.47
2022-12-24T07:07:36.837Z,6.23
2022-12-24T07:10:07.635Z,7.10
2022-12-24T07:12:37.352Z,5.57
2022-12-24T07:15:08.157Z,6.83
2022-12-24T07:17:37.950Z,7.13
2022-12-24T07:20:14.632Z,6.50
2022-12-24T07:22:44.688Z,5.70
2022-12-24T07:25:15.440Z,6.90
2022-12-24T07:27:45.195Z,6.47
2022-12-24T07:30:15.999Z,6.60
2022-12-24T07:32:45.703Z,7.03
2022-12-24T07:35:18.035Z,7.00
2022-12-24T07:37:47.709Z,5.70
2022-12-24T07:40:17.638Z,6.07
2022-12-24T07:42:47.325Z,6.40
2022-12-24T07:45:16.998Z,6.30
2022-12-24T07:47:48.794Z,6.03
2022-12-24T07:50:22.166Z,6.50
2022-12-24T07:52:54.003Z,6.83
2022-12-24T07:55:23.697Z,7.23
2022-12-24T07:57:53.395Z,7.53
2022-12-24T08:00:24.585Z,7.33
2022-12-24T08:02:54.540Z,8.30
2022-12-24T08:05:27.971Z,6.87
2022-12-24T08:07:59.687Z,7.90
2022-12-24T08:10:33.218Z,6.10
2022-12-24T08:13:03.966Z,6.27
2022-12-24T08:15:33.694Z,6.90
2022-12-24T08:18:03.380Z,6.60
2022-12-24T08:20:36.674Z,6.93
2022-12-24T08:23:07.516Z,6.20
2022-12-24T08:25:38.738Z,5.33
2022-12-24T08:28:08.782Z,6.03
2022-12-24T08:30:39.489Z,7.30
2022-12-24T08:33:11.092Z,7.47
2022-12-24T08:35:44.406Z,7.93
2022-12-24T08:38:15.070Z,8.47
2022-12-24T08:40:48.861Z,10.07
2022-12-24T08:43:20.482Z,10.23
2022-12-24T08:45:51.792Z,11.57
2022-12-24T08:48:21.545Z,10.40
2022-12-24T08:50:54.842Z,10.30
2022-12-24T08:53:24.590Z,12.43
2022-12-24T08:55:56.348Z,11.97
2022-12-24T08:58:26.195Z,11.40
2022-12-24T09:00:57.022Z,12.53
2022-12-24T09:03:28.479Z,12.73
2022-12-24T09:06:01.907Z,12.57
2022-12-24T09:08:31.799Z,12.53
2022-12-24T09:11:06.053Z,12.73
2022-12-24T09:13:36.334Z,12.33
2022-12-24T09:16:06.603Z,13.17
2022-12-24T09:18:37.807Z,12.47
2022-12-24T09:21:14.470Z,11.87
2022-12-24T09:23:46.343Z,11.53
2022-12-24T09:26:18.938Z,10.70
2022-12-24T09:28:49.078Z,10.57
2022-12-24T09:31:19.682Z,12.83
2022-12-24T09:33:51.885Z,11.33
2022-12-24T09:36:26.236Z,11.23
2022-12-24T09:38:55.931Z,10.77
2022-12-24T09:41:39.304Z,11.30
2022-12-24T09:44:22.236Z,11.93
2022-12-24T09:46:53.847Z,14.13
2022-12-24T09:49:41.870Z,11.93
2022-12-24T09:52:18.336Z,12.20
2022-12-24T09:54:54.416Z,12.33
2022-12-24T09:57:35.072Z,13.07
2022-12-24T10:00:05.782Z,12.80
2022-12-24T10:02:39.716Z,12.43
2022-12-24T10:05:16.820Z,13.77
2022-12-24T10:07:57.527Z,12.10
2022-12-24T10:10:33.884Z,14.80
2022-12-24T10:13:11.255Z,12.67
2022-12-24T10:15:47.036Z,12.00
2022-12-24T10:18:28.072Z,11.27
2022-12-24T10:21:05.875Z,11.30
2022-12-24T10:23:46.877Z,11.67
2022-12-24T10:26:23.138Z,10.90
2022-12-24T10:28:58.263Z,10.67
2022-12-24T10:31:31.732Z,11.20
2022-12-24T10:34:04.991Z,10.90
2022-12-24T10:36:35.454Z,11.40
2022-12-24T10:39:17.186Z,8.90
2022-12-24T10:41:47.957Z,10.00
2022-12-24T10:44:20.627Z,9.27
2022-12-24T10:46:51.001Z,9.67
2022-12-24T10:49:28.939Z,9.60
2022-12-24T10:52:01.457Z,9.00
2022-12-24T10:54:39.515Z,8.70
2022-12-24T10:57:27.971Z,8.20
2022-12-24T10:59:59.568Z,8.83
2022-12-24T11:02:33.391Z,8.90
2022-12-24T11:05:05.955Z,8.60
2022-12-24T11:07:36.390Z,9.57
2022-12-24T11:10:11.696Z,9.67
2022-12-24T11:13:05.963Z,8.40
2022-12-24T11:15:38.941Z,6.80
2022-12-24T11:18:16.517Z,7.93
2022-12-24T11:20:53.645Z,9.47
2022-12-24T11:23:24.967Z,8.13
2022-12-24T11:26:00.111Z,7.10
2022-12-24T11:28:32.314Z,7.13
2022-12-24T11:31:05.521Z,6.50
2022-12-24T11:33:49.541Z,6.80
2022-12-24T11:36:22.626Z,7.17
2022-12-24T11:38:56.157Z,6.57
2022-12-24T11:41:29.615Z,6.43
2022-12-24T11:44:07.014Z,7.03
2022-12-24T11:46:41.843Z,8.70
2022-12-24T11:49:27.435Z,6.90
2022-12-24T11:52:26.305Z,7.80
2022-12-24T11:55:17.104Z,7.33
2022-12-24T11:58:00.865Z,6.57
2022-12-24T12:00:31.363Z,8.20
2022-12-24T12:03:05.802Z,9.33
2022-12-24T12:05:37.389Z,7.77
2022-12-24T12:08:17.504Z,8.30
2022-12-24T12:10:50.854Z,8.60
2022-12-24T12:13:33.664Z,9.20
2022-12-24T12:16:17.392Z,9.30
2022-12-24T12:18:51.715Z,9.60
2022-12-24T12:21:28.382Z,12.43
2022-12-24T12:24:04.670Z,9.70
2022-12-24T12:26:34.947Z,9.70
2022-12-24T12:29:26.699Z,9.83
2022-12-24T12:32:02.883Z,8.40
2022-12-24T12:34:39.732Z,9.93
2022-12-24T12:37:15.265Z,9.60
2022-12-24T12:39:46.563Z,9.10
2022-12-24T12:42:29.357Z,9.80
2022-12-24T12:45:19.604Z,7.90
2022-12-24T12:48:01.945Z,9.63
2022-12-24T12:50:37.501Z,9.13
2022-12-24T12:53:26.312Z,8.80
2022-12-24T12:56:05.624Z,9.27
2022-12-24T12:58:40.370Z,8.37
2022-12-24T13:01:19.359Z,7.60
2022-12-24T13:04:09.506Z,8.43
2022-12-24T13:07:07.660Z,8.87
2022-12-24T13:10:06.435Z,7.47
2022-12-24T13:12:49.817Z,8.10
2022-12-24T13:15:43.194Z,8.63
2022-12-24T13:18:36.334Z,8.50
2022-12-24T13:21:07.777Z,7.60
2022-12-24T13:23:38.697Z,11.13
2022-12-24T13:26:14.268Z,9.30
2022-12-24T13:28:44.605Z,8.60
2022-12-24T13:31:31.703Z,7.80
2022-12-24T13:34:06.730Z,8.27
2022-12-24T13:37:06.623Z,7.90
2022-12-24T13:40:05.560Z,8.10
2022-12-24T13:42:51.689Z,8.27
2022-12-24T13:45:44.566Z,7.53
2022-12-24T13:48:28.252Z,8.67
2022-12-24T13:51:02.281Z,7.87
2022-12-24T13:53:36.388Z,7.63
2022-12-24T13:56:11.477Z,7.20
2022-12-24T13:58:44.200Z,7.40
2022-12-24T14:01:16.979Z,8.50
2022-12-24T14:03:50.386Z,7.73
2022-12-24T14:06:29.163Z,8.13
2022-12-24T14:09:07.921Z,7.53
2022-12-24T14:12:08.566Z,7.30
2022-12-24T14:14:41.150Z,7.83
2022-12-24T14:17:17.888Z,8.10
2022-12-24T14:19:53.892Z,7.20
2022-12-24T14:22:34.783Z,7.97
2022-12-24T14:25:16.525Z,8.27
2022-12-24T14:27:49.258Z,10.50
2022-12-24T14:30:23.437Z,9.57
2022-12-24T14:32:55.487Z,9.40
2022-12-24T14:35:29.994Z,8.90
2022-12-24T14:38:06.216Z,6.63
2022-12-24T14:40:45.382Z,8.60
2022-12-24T14:43:27.588Z,7.20
2022-12-24T14:46:07.755Z,7.70
2022-12-24T14:48:48.396Z,8.40
2022-12-24T14:51:27.133Z,7.90
2022-12-24T14:54:19.012Z,7.40
2022-12-24T14:56:50.545Z,8.27
2022-12-24T14:59:22.211Z,7.03
2022-12-24T15:01:52.155Z,8.10
2022-12-24T15:04:22.034Z,8.37
2022-12-24T15:06:56.802Z,8.90
2022-12-24T15:09:34.604Z,7.30
2022-12-24T15:12:06.494Z,8.03
2022-12-24T15:14:44.279Z,7.90
2022-12-24T15:17:16.520Z,8.20
2022-12-24T15:19:50.275Z,7.90
2022-12-24T15:22:26.551Z,7.43
2022-12-24T15:25:00.978Z,7.80
2022-12-24T15:27:36.332Z,7.30
2022-12-24T15:30:18.122Z,8.10
2022-12-24T15:32:48.561Z,6.83
2022-12-24T15:35:46.079Z,7.10
2022-12-24T15:38:28.542Z,8.03
2022-12-24T15:41:01.689Z,8.03
2022-12-24T15:43:33.049Z,7.70
2022-12-24T15:46:03.915Z,7.03
2022-12-24T15:48:36.173Z,6.03
2022-12-24T15:51:09.061Z,8.40
2022-12-24T15:53:46.365Z,6.83
2022-12-24T15:56:33.409Z,7.20
2022-12-24T15:59:31.232Z,7.50
2022-12-24T16:02:33.111Z,7.53
2022-12-24T16:05:35.823Z,7.90
2022-12-24T16:08:24.171Z,7.97
2022-12-24T16:10:56.901Z,7.90
2022-12-24T16:13:32.720Z,9.07
2022-12-24T16:16:06.726Z,7.20
2022-12-24T16:18:40.247Z,6.80
2022-12-24T16:21:11.497Z,6.90
2022-12-24T16:23:48.999Z,6.80
2022-12-24T16:26:18.913Z,7.07
2022-12-24T16:28:52.760Z,7.70
2022-12-24T16:31:33.690Z,6.73
2022-12-24T16:34:08.089Z,8.23
2022-12-24T16:36:38.789Z,7.50
2022-12-24T16:39:22.064Z,9.70
2022-12-24T16:42:13.053Z,9.57
2022-12-24T16:44:46.007Z,9.00
2022-12-24T16:47:20.915Z,8.80
2022-12-24T16:49:55.491Z,8.70
2022-12-24T16:52:29.015Z,11.77
2022-12-24T16:55:00.397Z,13.37
2022-12-24T16:57:31.251Z,10.87
2022-12-24T17:00:06.071Z,8.77
2022-12-24T17:02:36.972Z,8.13
2022-12-24T17:05:07.475Z,8.20
2022-12-24T17:07:43.146Z,9.03
2022-12-24T17:10:14.786Z,9.53
2022-12-24T17:12:44.991Z,9.37
2022-12-24T17:15:18.380Z,10.17
2022-12-24T17:17:48.117Z,7.57
2022-12-24T17:20:24.503Z,7.43
2022-12-24T17:22:54.842Z,7.80
2022-12-24T17:25:25.668Z,7.67
2022-12-24T17:27:57.408Z,8.20
2022-12-24T17:30:29.669Z,7.07
2022-12-24T17:33:00.620Z,8.17
2022-12-24T17:35:31.530Z,8.07
2022-12-24T17:38:01.209Z,9.00
2022-12-24T17:40:32.346Z,7.83
2022-12-24T17:43:05.591Z,7.57
2022-12-24T17:45:45.320Z,7.07
2022-12-24T17:48:15.033Z,7.30
2022-12-24T17:50:44.927Z,8.07
2022-12-24T17:53:14.670Z,8.40
2022-12-24T17:55:44.861Z,7.90
2022-12-24T17:58:16.886Z,7.50
2022-12-24T18:00:52.551Z,10.20
2022-12-24T18:03:22.323Z,8.03
2022-12-24T18:05:52.101Z,7.90
2022-12-24T18:08:22.743Z,8.97
2022-12-24T18:10:52.566Z,10.60
2022-12-24T18:13:23.119Z,16.00
2022-12-24T18:15:55.440Z,17.03
2022-12-24T18:18:27.199Z,14.67
2022-12-24T18:21:04.275Z,12.67
2022-12-24T18:23:34.031Z,13.27
2022-12-24T18:26:05.068Z,11.30
2022-12-24T18:28:35.279Z,10.07
2022-12-24T18:31:11.007Z,9.43
2022-12-24T18:33:45.227Z,10.60
2022-12-24T18:36:21.379Z,10.50
2022-12-24T18:38:54.927Z,11.43
2022-12-24T18:41:29.677Z,11.10
2022-12-24T18:44:02.194Z,11.13
2022-12-24T18:46:38.083Z,11.40
2022-12-24T18:49:07.858Z,12.27
2022-12-24T18:51:39.942Z,10.67
2022-12-24T18:54:13.381Z,12.00
2022-12-24T18:56:46.331Z,16.90
2022-12-24T18:59:16.108Z,14.10
2022-12-24T19:01:52.186Z,16.80
2022-12-24T19:04:24.106Z,20.53
2022-12-24T19:06:54.790Z,17.67
2022-12-24T19:09:24.735Z,13.60
2022-12-24T19:11:54.446Z,13.33
2022-12-24T19:14:27.416Z,12.63
2022-12-24T19:17:00.719Z,12.03
2022-12-24T19:19:30.868Z,12.00
2022-12-24T19:22:00.711Z,11.40
2022-12-24T19:24:32.699Z,13.27
2022-12-24T19:27:02.621Z,11.40
2022-12-24T19:29:33.317Z,12.03
2022-12-24T19:32:08.045Z,11.97
2022-12-24T19:34:38.841Z,11.57
2022-12-24T19:37:13.456Z,12.70
2022-12-24T19:39:44.390Z,13.00
2022-12-24T19:42:14.126Z,11.75
2022-12-24T19:44:43.793Z,12.90
2022-12-24T19:47:17.131Z,12.87
2022-12-24T19:49:46.824Z,11.10
2022-12-24T19:52:16.574Z,12.20
2022-12-24T19:54:47.353Z,11.50
2022-12-24T19:57:20.378Z,13.53
2022-12-24T19:59:50.093Z,12.30
2022-12-24T20:02:26.115Z,12.97
2022-12-24T20:04:55.938Z,12.93
2022-12-24T20:07:25.729Z,11.80
2022-12-24T20:09:59.364Z,12.07
2022-12-24T20:12:29.065Z,11.30
2022-12-24T20:14:59.382Z,12.90
2022-12-24T20:17:31.676Z,12.60
2022-12-24T20:20:01.426Z,11.87
2022-12-24T20:22:33.219Z,12.10
2022-12-24T20:25:03.032Z,12.20
2022-12-24T20:27:36.349Z,13.10
2022-12-24T20:30:11.054Z,13.57
2022-12-24T20:32:46.947Z,12.30
2022-12-24T20:35:24.165Z,13.23
2022-12-24T20:37:57.385Z,14.63
2022-12-24T20:40:29.051Z,15.37
2022-12-24T20:42:58.781Z,14.03
2022-12-24T20:45:28.538Z,14.87
2022-12-24T20:48:01.023Z,15.93
2022-12-24T20:50:31.757Z,16.23
2022-12-24T20:53:02.562Z,15.10
2022-12-24T20:55:36.822Z,20.33
2022-12-24T20:58:06.712Z,19.93
2022-12-24T21:00:40.980Z,19.23
2022-12-24T21:03:13.317Z,21.10
2022-12-24T21:05:43.460Z,20.50
2022-12-24T21:08:15.547Z,18.00
2022-12-24T21:11:09.029Z,16.00
2022-12-24T21:13:36.120Z,15.57
2022-12-24T21:16:08.618Z,15.63
2022-12-24T21:18:41.932Z,15.30
2022-12-24T21:21:11.756Z,15.43
2022-12-24T21:23:41.428Z,13.97
2022-12-24T21:26:13.402Z,14.80
2022-12-24T21:28:47.776Z,13.43
2022-12-24T21:31:17.964Z,13.43
2022-12-24T21:33:50.333Z,13.93
2022-12-24T21:36:23.551Z,14.70
2022-12-24T21:38:53.671Z,13.93
2022-12-24T21:41:26.023Z,13.20
2022-12-24T21:43:55.953Z,15.20
2022-12-24T21:46:32.253Z,13.80
2022-12-24T21:49:18.163Z,14.33
2022-12-24T21:51:49.161Z,13.00
2022-12-24T21:54:31.528Z,15.00
2022-12-24T21:57:20.028Z,16.83
2022-12-24T21:59:54.419Z,15.93
2022-12-24T22:02:26.812Z,17.33
2022-12-24T22:04:59.355Z,14.73
2022-12-24T22:07:43.728Z,13.73
2022-12-24T22:10:31.063Z,13.90
2022-12-24T22:13:06.287Z,13.93
2022-12-24T22:15:45.700Z,13.27
2022-12-24T22:18:16.217Z,14.47
2022-12-24T22:20:52.090Z,15.20
2022-12-24T22:23:22.595Z,14.10
2022-12-24T22:25:52.309Z,13.73
2022-12-24T22:28:25.633Z,14.73
2022-12-24T22:30:55.858Z,13.50
2022-12-24T22:33:30.706Z,13.63
2022-12-24T22:36:07.001Z,13.83
2022-12-24T22:38:38.707Z,14.50
2022-12-24T22:41:10.813Z,15.17
2022-12-24T22:43:42.828Z,14.93
2022-12-24T22:46:15.835Z,12.63
2022-12-24T22:48:49.492Z,13.93
2022-12-24T22:51:25.452Z,12.10
2022-12-24T22:53:58.417Z,12.60
2022-12-24T22:56:36.890Z,12.37
2022-12-24T22:59:16.132Z,13.60
2022-12-24T23:01:52.845Z,14.33
2022-12-24T23:04:23.781Z,12.93
2022-12-24T23:06:56.246Z,13.03
2022-12-24T23:09:27.071Z,13.70
2022-12-24T23:11:56.830Z,13.00
2022-12-24T23:14:40.173Z,12.57
2022-12-24T23:17:12.602Z,11.53
2022-12-24T23:19:43.747Z,11.53
2022-12-24T23:22:16.122Z,12.60
2022-12-24T23:24:48.294Z,12.67
2022-12-24T23:27:20.208Z,11.30
2022-12-24T23:29:49.947Z,12.20
2022-12-24T23:32:20.912Z,11.97
2022-12-24T23:34:50.942Z,13.23
2022-12-24T23:37:25.069Z,11.97
2022-12-24T23:39:58.002Z,11.80
2022-12-24T23:42:29.291Z,11.00
2022-12-24T23:45:01.339Z,9.90
2022-12-24T23:47:31.293Z,10.53
2022-12-24T23:50:01.197Z,10.90
2022-12-24T23:52:34.295Z,10.53
2022-12-24T23:55:09.051Z,10.17
2022-12-24T23:57:39.825Z,10.90
